Time;durP1;ratioP1;P1;durP2;ratioP2;P2;SDS_P1;SDS_P2;PMS_P1;PMS_P2;Temp;Humidity;BMP_temperature;BMP_pressure;BME280_temperature;BME280_humidity;BME280_pressure;Samples;Min_cycle;Max_cycle;Signal;HPM_P1;HPM_P2
2022/12/26 00:01:49;;;;;;;24.08;2.78;;;7.60;99.90;;;;;;5086805;28;20044;-57
2022/12/26 00:04:17;;;;;;;17.20;2.25;;;7.70;99.90;;;;;;5086112;28;20040;-57
2022/12/26 00:07:05;;;;;;;15.82;1.77;;;7.80;99.90;;;;;;5086972;28;20036;-58
2022/12/26 00:09:33;;;;;;;16.38;2.85;;;7.80;99.90;;;;;;5083449;28;20388;-58
2022/12/26 00:12:00;;;;;;;13.65;1.98;;;7.80;99.90;;;;;;5082823;28;20048;-59
2022/12/26 00:14:28;;;;;;;8.50;1.52;;;7.80;99.90;;;;;;5083449;28;20040;-56
2022/12/26 00:16:56;;;;;;;11.65;2.25;;;7.90;99.90;;;;;;5085787;28;20055;-58
2022/12/26 00:19:24;;;;;;;12.77;1.85;;;7.90;99.90;;;;;;5087696;28;20070;-57
2022/12/26 00:21:51;;;;;;;13.80;1.75;;;7.90;99.90;;;;;;5087119;28;20062;-58
2022/12/26 00:24:19;;;;;;;9.45;1.30;;;7.90;99.90;;;;;;5082019;28;20040;-57
2022/12/26 00:26:46;;;;;;;9.70;2.10;;;7.90;99.90;;;;;;5085134;28;20067;-58
2022/12/26 00:29:14;;;;;;;8.38;1.65;;;7.90;99.90;;;;;;5085372;28;20047;-57
2022/12/26 00:31:42;;;;;;;25.70;2.33;;;7.90;99.90;;;;;;5085022;28;20044;-58
2022/12/26 00:34:11;;;;;;;11.10;1.27;;;7.90;99.90;;;;;;5087109;28;20036;-57
2022/12/26 00:36:39;;;;;;;8.73;1.42;;;8.40;99.90;;;;;;5086493;28;20044;-58
2022/12/26 00:39:12;;;;;;;15.02;1.65;;;7.90;99.90;;;;;;5087385;28;20056;-57
2022/12/26 00:41:39;;;;;;;9.95;1.95;;;7.90;99.90;;;;;;5068365;28;20051;-57
2022/12/26 00:44:07;;;;;;;6.35;1.15;;;7.90;99.90;;;;;;5084868;28;20047;-58
2022/12/26 00:46:34;;;;;;;6.32;0.90;;;7.90;99.90;;;;;;5086575;28;20063;-57
2022/12/26 00:49:03;;;;;;;5.32;1.00;;;7.90;99.90;;;;;;5087849;28;20056;-56
2022/12/26 00:51:30;;;;;;;4.57;0.70;;;8.00;99.90;;;;;;5086329;28;20044;-57
2022/12/26 00:53:58;;;;;;;4.90;1.40;;;8.00;99.90;;;;;;5086450;28;20040;-57
2022/12/26 00:56:25;;;;;;;4.05;0.40;;;7.90;99.90;;;;;;5082959;28;20052;-58
2022/12/26 00:58:53;;;;;;;1.08;0.22;;;7.70;99.90;;;;;;5087716;28;20118;-59
2022/12/26 01:01:22;;;;;;;3.50;0.40;;;7.40;99.90;;;;;;5086830;28;20491;-59
2022/12/26 01:03:51;;;;;;;1.55;0.40;;;7.10;99.90;;;;;;5084295;28;20048;-63
2022/12/26 01:06:19;;;;;;;3.38;0.70;;;6.90;99.90;;;;;;5082078;28;20044;-60
2022/12/26 01:08:46;;;;;;;2.42;1.55;;;6.50;99.90;;;;;;5087684;28;20608;-58
2022/12/26 01:11:38;;;;;;;4.30;1.83;;;6.50;99.90;;;;;;5085992;28;20040;-59
2022/12/26 01:14:03;;;;;;;7.67;1.20;;;6.30;99.90;;;;;;5084670;28;20040;-60
2022/12/26 01:16:31;;;;;;;2.72;0.98;;;6.00;99.90;;;;;;5088681;28;20293;-59
2022/12/26 01:19:00;;;;;;;1.17;0.52;;;5.50;99.90;;;;;;5089358;28;20063;-58
2022/12/26 01:21:28;;;;;;;3.03;0.40;;;5.50;99.90;;;;;;5090939;28;20048;-60
2022/12/26 01:23:56;;;;;;;3.10;0.52;;;5.30;99.90;;;;;;5090995;28;20380;-59
2022/12/26 01:26:23;;;;;;;6.25;0.45;;;5.00;99.90;;;;;;5080821;28;20047;-59
2022/12/26 01:28:52;;;;;;;2.88;0.38;;;5.00;99.90;;;;;;5078514;28;20051;-58
2022/12/26 01:31:21;;;;;;;1.95;0.20;;;4.90;99.90;;;;;;5090568;28;20052;-57
2022/12/26 01:33:49;;;;;;;4.53;0.45;;;4.80;99.90;;;;;;5091239;28;20040;-60
2022/12/26 01:36:17;;;;;;;7.38;1.10;;;4.70;99.90;;;;;;5090190;28;20044;-59
2022/12/26 01:38:45;;;;;;;2.13;0.22;;;4.70;99.90;;;;;;5090547;28;20052;-59
2022/12/26 01:41:18;;;;;;;3.28;0.70;;;4.60;99.90;;;;;;5089242;28;20055;-58
2022/12/26 01:43:48;;;;;;;2.90;0.63;;;4.50;99.90;;;;;;5090389;28;20052;-58
2022/12/26 01:46:21;;;;;;;5.28;0.30;;;4.40;99.90;;;;;;5089152;28;20052;-58
2022/12/26 01:48:50;;;;;;;2.40;0.20;;;4.30;99.90;;;;;;5090694;28;20471;-59
2022/12/26 01:51:20;;;;;;;1.83;0.38;;;4.20;99.90;;;;;;5089545;28;20055;-59
2022/12/26 01:53:53;;;;;;;1.48;0.30;;;4.20;99.90;;;;;;5089828;28;20048;-59
2022/12/26 01:56:34;;;;;;;2.17;0.30;;;4.10;99.90;;;;;;5085171;28;20055;-58
2022/12/26 01:59:08;;;;;;;8.18;0.60;;;4.00;99.90;;;;;;5072511;28;20071;-59
2022/12/26 02:01:38;;;;;;;4.72;0.40;;;4.00;99.90;;;;;;5089320;28;20048;-61
2022/12/26 02:07:02;;;;;;;2.85;0.38;;;3.80;99.90;;;;;;5075519;28;20040;-60
2022/12/26 02:09:32;;;;;;;5.20;0.30;;;3.80;99.90;;;;;;5088844;28;20483;-59
2022/12/26 02:12:22;;;;;;;4.33;0.30;;;3.70;99.90;;;;;;5079673;28;20063;-60
2022/12/26 02:15:08;;;;;;;0.88;0.13;;;3.60;99.90;;;;;;5070811;28;20032;-58
2022/12/26 02:17:40;;;;;;;6.53;0.55;;;3.50;99.90;;;;;;5074933;28;20067;-58
2022/12/26 02:20:16;;;;;;;3.50;0.30;;;3.50;99.90;;;;;;5088510;28;20044;-59
2022/12/26 02:22:59;;;;;;;7.32;1.10;;;3.50;99.90;;;;;;5090692;28;20226;-58
2022/12/26 02:25:48;;;;;;;10.52;1.45;;;3.40;99.90;;;;;;5088804;28;20400;-58
2022/12/26 02:28:52;;;;;;;7.38;0.85;;;3.40;99.90;;;;;;5031740;28;20049;-59
2022/12/26 02:31:35;;;;;;;4.22;0.82;;;3.30;99.90;;;;;;5048247;28;20048;-59
2022/12/26 02:34:18;;;;;;;6.80;1.13;;;3.30;99.90;;;;;;5053529;28;20036;-59
2022/12/26 02:36:49;;;;;;;5.18;0.60;;;3.30;99.90;;;;;;5040119;28;20088;-58
2022/12/26 02:39:36;;;;;;;6.55;0.70;;;3.30;99.90;;;;;;5043697;28;20040;-58
2022/12/26 02:42:22;;;;;;;3.25;0.57;;;3.20;99.90;;;;;;5056752;28;20052;-59
2022/12/26 02:48:57;;;;;;;6.05;0.68;;;3.20;99.90;;;;;;5013957;28;20496;-61
2022/12/26 03:17:18;;;;;;;10.65;0.98;;;2.90;99.90;;;;;;5052261;28;20515;-63
2022/12/26 03:18:27;;;;;;;6.53;0.60;;;2.90;99.90;;;;;;5063501;28;20510;-64
2022/12/26 03:21:19;;;;;;;6.90;1.60;;;2.90;99.90;;;;;;5063008;28;20045;-63
2022/12/26 03:23:49;;;;;;;8.27;0.50;;;2.90;99.90;;;;;;5051218;28;20061;-62
2022/12/26 03:32:11;;;;;;;2.42;0.60;;;2.70;99.90;;;;;;5091539;28;20052;-62
2022/12/26 03:34:43;;;;;;;9.57;1.40;;;2.70;99.90;;;;;;5092248;28;20039;-61
2022/12/26 03:37:29;;;;;;;7.13;0.70;;;2.70;99.90;;;;;;5092709;28;20055;-62
2022/12/26 04:19:57;;;;;;;7.88;1.00;;;2.20;99.90;;;;;;5071235;28;20071;-59
2022/12/26 04:45:34;;;;;;;7.33;0.87;;;1.90;99.90;;;;;;5090913;28;20036;-61
2022/12/26 04:50:50;;;;;;;6.15;0.80;;;1.70;99.90;;;;;;5091954;28;20067;-59
2022/12/26 04:53:20;;;;;;;7.32;0.90;;;1.70;99.90;;;;;;5098200;28;20040;-62
2022/12/26 04:55:49;;;;;;;6.82;0.93;;;1.70;99.90;;;;;;5096922;28;20487;-59
2022/12/26 04:58:17;;;;;;;15.55;1.00;;;1.60;99.90;;;;;;5098262;28;20067;-59
2022/12/26 05:00:44;;;;;;;8.25;0.77;;;1.60;99.90;;;;;;5096744;28;20052;-60
2022/12/26 05:11:34;;;;;;;7.45;0.90;;;1.50;99.90;;;;;;5081058;28;20044;-59
2022/12/26 05:14:01;;;;;;;4.72;1.00;;;1.40;99.90;;;;;;5096404;28;20056;-60
2022/12/26 05:30:27;;;;;;;8.43;0.55;;;1.50;99.90;;;;;;5097849;28;20043;-64
2022/12/26 05:35:41;;;;;;;11.60;1.83;;;1.60;99.90;;;;;;5097301;28;20043;-61
2022/12/26 05:38:10;;;;;;;9.13;1.08;;;1.70;99.90;;;;;;5095087;28;20040;-59
2022/12/26 05:40:37;;;;;;;11.80;1.08;;;1.70;99.90;;;;;;5096013;28;20051;-61
2022/12/26 05:43:05;;;;;;;12.13;1.05;;;1.80;99.90;;;;;;5097537;28;20055;-62
2022/12/26 05:45:33;;;;;;;9.48;1.70;;;1.80;99.90;;;;;;5096180;28;20500;-58
2022/12/26 05:48:01;;;;;;;14.45;1.55;;;1.90;99.90;;;;;;5085417;28;20059;-58
2022/12/26 05:50:29;;;;;;;8.98;0.93;;;1.90;99.90;;;;;;5092009;28;20055;-61
2022/12/26 05:52:58;;;;;;;11.45;1.25;;;2.00;99.90;;;;;;5092534;28;20051;-59
2022/12/26 05:55:26;;;;;;;7.68;1.10;;;2.00;99.90;;;;;;5094025;28;20423;-63
2022/12/26 05:57:54;;;;;;;13.02;0.93;;;2.10;99.90;;;;;;5093596;28;20399;-62
2022/12/26 06:00:29;;;;;;;19.23;1.02;;;;;;;;;;5093866;28;20040;-61
2022/12/26 06:03:01;;;;;;;13.55;1.20;;;2.10;99.90;;;;;;5076489;28;20625;-59
2022/12/26 06:05:28;;;;;;;6.25;0.82;;;2.10;99.90;;;;;;5064900;28;20459;-59
2022/12/26 06:07:57;;;;;;;12.35;0.80;;;2.10;99.90;;;;;;5082838;28;20048;-62
2022/12/26 06:10:28;;;;;;;9.93;0.93;;;2.10;99.90;;;;;;5089134;28;20040;-60
2022/12/26 06:12:56;;;;;;;6.50;1.10;;;2.10;99.90;;;;;;5086314;28;20055;-59
2022/12/26 06:15:24;;;;;;;12.98;0.98;;;2.20;99.90;;;;;;5086523;28;20301;-60
2022/12/26 06:17:54;;;;;;;6.93;0.50;;;2.10;99.90;;;;;;5089363;28;20055;-60
2022/12/26 06:20:22;;;;;;;6.13;0.90;;;2.10;99.90;;;;;;5089894;28;20052;-61
2022/12/26 06:22:49;;;;;;;6.72;0.50;;;2.10;99.90;;;;;;5089319;28;20043;-60
2022/12/26 06:25:17;;;;;;;7.50;0.82;;;2.20;99.90;;;;;;5089426;28;20479;-57
2022/12/26 06:27:45;;;;;;;7.72;1.27;;;2.30;99.90;;;;;;5089678;28;20067;-62
2022/12/26 06:30:13;;;;;;;9.60;0.52;;;2.20;99.90;;;;;;5088726;28;20044;-62
2022/12/26 06:32:41;;;;;;;2.15;0.22;;;2.30;99.90;;;;;;5086774;28;20052;-60
2022/12/26 06:35:11;;;;;;;4.78;0.60;;;2.30;99.90;;;;;;5085137;28;20051;-61
2022/12/26 06:37:39;;;;;;;1.17;0.60;;;2.30;99.90;;;;;;5080606;28;20043;-60
2022/12/26 06:40:08;;;;;;;4.40;1.50;;;2.30;99.90;;;;;;5089546;28;20181;-58
2022/12/26 06:42:36;;;;;;;7.63;1.35;;;2.30;99.90;;;;;;5087480;28;20048;-60
2022/12/26 06:45:04;;;;;;;7.10;0.88;;;2.30;99.90;;;;;;5089048;28;20043;-60
2022/12/26 06:47:32;;;;;;;7.63;0.70;;;2.30;99.90;;;;;;5081966;28;20036;-58
2022/12/26 06:50:02;;;;;;;10.85;1.20;;;2.30;99.90;;;;;;5073158;28;20067;-60
2022/12/26 06:52:34;;;;;;;9.30;1.42;;;2.30;99.90;;;;;;5068708;28;20056;-59
2022/12/26 06:55:07;;;;;;;3.58;0.50;;;2.30;99.90;;;;;;5089179;28;20041;-60
2022/12/26 06:57:35;;;;;;;1.35;0.20;;;2.30;99.90;;;;;;5087055;28;20376;-58
2022/12/26 07:00:03;;;;;;;7.55;0.55;;;2.30;99.90;;;;;;5090004;28;20051;-58
2022/12/26 07:02:31;;;;;;;1.73;0.13;;;2.50;99.90;;;;;;5085089;28;20506;-58
2022/12/26 07:04:59;;;;;;;3.50;0.60;;;2.50;99.90;;;;;;5085874;28;20519;-58
2022/12/26 07:07:27;;;;;;;4.32;0.82;;;2.60;99.90;;;;;;5077252;28;20395;-59
2022/12/26 07:09:55;;;;;;;5.03;0.32;;;2.60;99.90;;;;;;5088133;28;20047;-59
2022/12/26 07:12:23;;;;;;;7.05;0.50;;;2.60;99.90;;;;;;5087669;28;20033;-58
2022/12/26 07:14:51;;;;;;;3.90;0.50;;;2.60;99.90;;;;;;5091253;28;20044;-58
2022/12/26 07:17:24;;;;;;;6.10;0.38;;;2.70;99.90;;;;;;5089394;28;20048;-58
2022/12/26 07:19:52;;;;;;;3.80;0.75;;;2.60;99.90;;;;;;5087907;28;20052;-59
2022/12/26 07:22:20;;;;;;;3.90;0.63;;;2.60;99.90;;;;;;5075746;28;20392;-58
2022/12/26 07:24:50;;;;;;;7.82;0.50;;;2.60;99.90;;;;;;5085176;28;20546;-59
2022/12/26 07:27:18;;;;;;;3.80;0.80;;;2.50;99.90;;;;;;5088035;28;20055;-61
2022/12/26 07:29:48;;;;;;;10.23;0.80;;;2.50;99.90;;;;;;5088109;28;20048;-62
2022/12/26 07:32:21;;;;;;;6.75;0.77;;;2.40;99.90;;;;;;5088847;28;20509;-59
2022/12/26 07:34:49;;;;;;;1.60;0.40;;;2.30;99.90;;;;;;5088856;28;20502;-58
2022/12/26 07:37:17;;;;;;;4.30;0.60;;;2.30;99.90;;;;;;5079746;28;20047;-59
2022/12/26 07:39:46;;;;;;;3.35;0.80;;;2.20;99.90;;;;;;5084222;28;20048;-58
2022/12/26 07:42:20;;;;;;;3.15;0.47;;;2.10;99.90;;;;;;5087267;28;20040;-59
2022/12/26 07:44:48;;;;;;;1.67;0.50;;;2.10;99.90;;;;;;5088688;28;20052;-59
2022/12/26 07:47:16;;;;;;;9.10;0.70;;;2.10;99.90;;;;;;5074467;28;20044;-60
2022/12/26 07:49:46;;;;;;;6.60;0.65;;;2.00;99.90;;;;;;5085025;28;20047;-59
2022/12/26 07:52:14;;;;;;;5.13;1.35;;;2.00;99.90;;;;;;5077823;28;20040;-62
2022/12/26 07:54:42;;;;;;;4.10;1.35;;;1.90;99.90;;;;;;5087508;28;20044;-62
2022/12/26 07:57:10;;;;;;;5.50;0.68;;;1.90;99.90;;;;;;5086430;28;20051;-60
2022/12/26 07:59:57;;;;;;;2.28;0.57;;;1.90;99.90;;;;;;5088419;28;20036;-64
2022/12/26 08:02:25;;;;;;;5.75;1.20;;;2.00;99.90;;;;;;5084491;28;20052;-61
2022/12/26 08:04:55;;;;;;;6.88;0.70;;;1.90;99.90;;;;;;5084163;28;20051;-61
2022/12/26 08:07:23;;;;;;;2.78;0.35;;;1.90;99.90;;;;;;5079469;28;20055;-63
2022/12/26 08:09:51;;;;;;;1.92;0.47;;;2.00;99.90;;;;;;5087983;28;20063;-59
2022/12/26 08:12:20;;;;;;;10.25;2.53;;;2.00;99.90;;;;;;5088112;28;20047;-60
2022/12/26 08:14:48;;;;;;;8.45;1.35;;;2.00;99.90;;;;;;5087509;28;20074;-60
2022/12/26 08:17:17;;;;;;;8.05;0.70;;;2.10;99.90;;;;;;5085675;28;20040;-58
2022/12/26 08:19:44;;;;;;;5.13;1.17;;;2.10;99.90;;;;;;5087390;28;20518;-61
2022/12/26 08:22:12;;;;;;;6.03;1.25;;;2.10;99.90;;;;;;5086401;28;20070;-60
2022/12/26 08:24:40;;;;;;;5.20;1.27;;;2.20;99.90;;;;;;5070050;28;20055;-62
2022/12/26 08:27:11;;;;;;;12.73;0.77;;;2.20;99.90;;;;;;5079990;28;20051;-60
2022/12/26 08:29:46;;;;;;;8.13;0.70;;;2.20;99.90;;;;;;5079566;28;20040;-62
2022/12/26 08:32:14;;;;;;;4.32;0.63;;;2.30;99.90;;;;;;5085071;28;20122;-59
2022/12/26 08:34:42;;;;;;;1.63;0.60;;;2.30;99.90;;;;;;5084541;28;20032;-60
2022/12/26 08:37:10;;;;;;;3.15;0.70;;;2.40;99.90;;;;;;5084850;28;20647;-65
2022/12/26 08:39:40;;;;;;;2.40;0.40;;;2.40;99.90;;;;;;5087192;28;20055;-60
2022/12/26 08:42:07;;;;;;;7.47;0.93;;;2.30;99.90;;;;;;5087793;28;20410;-63
2022/12/26 08:44:44;;;;;;;7.78;0.80;;;2.30;99.90;;;;;;5086591;28;20062;-61
2022/12/26 08:47:13;;;;;;;5.00;1.05;;;2.30;99.90;;;;;;5087007;28;20051;-61
2022/12/26 08:49:41;;;;;;;7.90;0.98;;;2.20;99.90;;;;;;5081825;28;20404;-59
2022/12/26 08:52:09;;;;;;;10.52;1.25;;;2.20;99.90;;;;;;5074721;28;20040;-59
2022/12/26 08:54:39;;;;;;;3.42;0.50;;;2.20;99.90;;;;;;5082791;28;20040;-60
2022/12/26 08:57:08;;;;;;;8.55;0.82;;;2.10;99.90;;;;;;5087957;28;20056;-60
2022/12/26 08:59:36;;;;;;;8.05;0.75;;;2.20;99.90;;;;;;5081270;28;20487;-59
2022/12/26 09:02:04;;;;;;;11.48;1.92;;;2.10;99.90;;;;;;5082649;28;20052;-61
2022/12/26 09:04:32;;;;;;;6.47;0.88;;;2.10;99.90;;;;;;5076714;28;20032;-60
2022/12/26 09:07:00;;;;;;;6.93;0.95;;;2.10;99.90;;;;;;5078584;28;20044;-60
2022/12/26 09:09:28;;;;;;;5.90;0.60;;;2.10;99.90;;;;;;5085144;28;20044;-60
2022/12/26 09:12:01;;;;;;;3.38;0.95;;;2.10;99.90;;;;;;5072791;28;20044;-62
2022/12/26 09:14:32;;;;;;;5.18;0.88;;;2.20;99.90;;;;;;5073989;28;20040;-59
2022/12/26 09:16:59;;;;;;;5.85;1.30;;;2.30;99.90;;;;;;5081131;28;20048;-59
2022/12/26 09:19:31;;;;;;;4.75;0.73;;;2.30;99.90;;;;;;5082838;28;20036;-60
2022/12/26 09:24:57;;;;;;;4.47;1.50;;;2.40;99.90;;;;;;5082202;28;20044;-60
2022/12/26 09:27:30;;;;;;;3.28;0.88;;;2.50;99.90;;;;;;5081211;28;20396;-59
2022/12/26 09:30:00;;;;;;;11.73;1.55;;;2.50;99.90;;;;;;5082606;28;20431;-60
2022/12/26 09:32:34;;;;;;;5.90;1.35;;;2.60;99.90;;;;;;5076571;28;20509;-58
2022/12/26 09:35:03;;;;;;;10.63;2.13;;;2.60;99.90;;;;;;5086306;28;20538;-58
2022/12/26 09:37:31;;;;;;;6.20;1.23;;;2.60;99.90;;;;;;5087609;28;20043;-59
2022/12/26 09:39:59;;;;;;;9.15;1.27;;;2.60;99.90;;;;;;5086724;28;20044;-58
2022/12/26 09:42:53;;;;;;;7.65;1.13;;;2.60;99.90;;;;;;5085704;28;20048;-59
2022/12/26 09:45:50;;;;;;;12.50;2.20;;;2.10;99.90;;;;;;5085369;28;20067;-59
2022/12/26 09:48:32;;;;;;;3.53;1.20;;;2.70;99.90;;;;;;5090533;28;20036;-60
2022/12/26 09:51:01;;;;;;;8.15;0.93;;;2.80;99.90;;;;;;5059143;28;20534;-60
2022/12/26 09:53:35;;;;;;;3.25;0.80;;;2.80;99.90;;;;;;5078115;28;20639;-58
2022/12/26 09:56:11;;;;;;;4.90;0.77;;;2.90;99.90;;;;;;5087514;28;20044;-59
2022/12/26 09:59:01;;;;;;;1.42;0.43;;;2.90;99.90;;;;;;5081967;28;20040;-61
2022/12/26 10:01:33;;;;;;;4.88;1.30;;;3.00;99.90;;;;;;5080326;28;20043;-60
2022/12/26 10:04:08;;;;;;;9.18;1.65;;;3.10;99.90;;;;;;5090615;28;20047;-58
2022/12/26 10:06:41;;;;;;;4.65;1.42;;;3.10;99.90;;;;;;5089095;28;20063;-59
2022/12/26 10:09:21;;;;;;;6.13;0.98;;;3.10;99.90;;;;;;5089109;28;20052;-58
2022/12/26 10:11:52;;;;;;;11.32;3.00;;;3.20;99.90;;;;;;5082446;28;20052;-58
2022/12/26 10:14:31;;;;;;;8.07;0.98;;;3.20;99.90;;;;;;5087759;28;20044;-59
2022/12/26 10:17:44;;;;;;;9.82;1.33;;;3.30;99.90;;;;;;5088985;28;20052;-59
2022/12/26 10:20:30;;;;;;;6.20;1.10;;;3.40;99.90;;;;;;5078276;28;20056;-63
2022/12/26 10:23:14;;;;;;;5.30;1.42;;;3.50;99.90;;;;;;5084809;28;20056;-59
2022/12/26 10:25:54;;;;;;;8.32;1.48;;;3.60;99.90;;;;;;5072263;28;20048;-58
2022/12/26 10:28:37;;;;;;;4.57;0.80;;;3.70;99.90;;;;;;5078997;28;20048;-58
2022/12/26 10:31:15;;;;;;;11.52;1.13;;;3.80;99.90;;;;;;5089158;28;20051;-58
2022/12/26 10:34:11;;;;;;;8.20;1.27;;;3.90;99.90;;;;;;5077570;28;20037;-59
2022/12/26 10:37:00;;;;;;;5.18;0.90;;;3.60;99.90;;;;;;5076494;28;20052;-59
2022/12/26 10:39:38;;;;;;;8.63;1.13;;;3.90;99.90;;;;;;5084561;28;20040;-59
2022/12/26 10:42:31;;;;;;;7.95;0.93;;;4.00;99.90;;;;;;5071351;28;20047;-60
2022/12/26 10:45:00;;;;;;;13.93;2.13;;;4.10;99.90;;;;;;5084305;28;20391;-60
2022/12/26 10:47:38;;;;;;;5.05;0.60;;;4.10;99.90;;;;;;5085369;28;20395;-59
2022/12/26 10:50:15;;;;;;;4.78;1.42;;;4.10;99.90;;;;;;5083222;28;20048;-61
2022/12/26 10:52:43;;;;;;;6.53;1.30;;;4.20;99.90;;;;;;5076474;28;20529;-58
2022/12/26 10:55:17;;;;;;;3.33;0.95;;;4.20;99.90;;;;;;5087157;28;20044;-59
2022/12/26 10:58:37;;;;;;;9.45;1.35;;;4.30;99.90;;;;;;5076437;28;20040;-61
2022/12/26 11:01:46;;;;;;;2.28;0.70;;;4.50;99.90;;;;;;5019716;28;20468;-58
2022/12/26 11:04:22;;;;;;;2.30;0.80;;;4.60;99.90;;;;;;4943509;28;20082;-59
2022/12/26 11:07:11;;;;;;;4.15;0.75;;;4.70;99.90;;;;;;5074815;28;20050;-59
2022/12/26 11:09:44;;;;;;;4.65;0.80;;;4.70;99.90;;;;;;5063445;28;20048;-62
2022/12/26 11:12:27;;;;;;;5.15;0.80;;;4.90;99.90;;;;;;5071089;28;20075;-63
2022/12/26 11:15:04;;;;;;;4.32;0.80;;;5.00;99.90;;;;;;5080631;28;20054;-58
2022/12/26 11:17:42;;;;;;;5.65;1.30;;;5.10;99.90;;;;;;5083702;28;20503;-59
2022/12/26 11:20:16;;;;;;;9.45;1.08;;;5.30;99.90;;;;;;5078126;28;20060;-59
2022/12/26 11:22:45;;;;;;;5.45;1.27;;;5.40;99.90;;;;;;5070511;28;20044;-58
2022/12/26 11:25:26;;;;;;;5.03;1.38;;;5.70;99.90;;;;;;5080259;28;20040;-59
2022/12/26 11:27:56;;;;;;;4.10;0.70;;;5.70;99.90;;;;;;5070615;28;20443;-59
2022/12/26 11:30:39;;;;;;;1.65;0.60;;;5.80;99.90;;;;;;5031424;28;20895;-58
2022/12/26 11:33:28;;;;;;;5.43;0.75;;;6.10;99.90;;;;;;5021711;28;20052;-59
2022/12/26 11:36:04;;;;;;;7.85;0.70;;;6.20;99.90;;;;;;5035352;28;20492;-59
2022/12/26 11:38:43;;;;;;;5.18;0.70;;;6.40;99.90;;;;;;5032360;28;20069;-59
2022/12/26 11:41:42;;;;;;;7.35;0.88;;;6.60;99.90;;;;;;5019586;28;20050;-59
2022/12/26 11:44:11;;;;;;;2.67;0.55;;;6.70;99.90;;;;;;5023170;28;20053;-58
2022/12/26 11:46:56;;;;;;;6.07;1.75;;;6.90;99.90;;;;;;5011660;28;20037;-59
2022/12/26 11:49:26;;;;;;;4.65;0.80;;;6.90;99.90;;;;;;5027945;28;20052;-58
2022/12/26 11:51:53;;;;;;;3.95;0.60;;;7.00;99.90;;;;;;5007357;28;20050;-57
2022/12/26 11:54:35;;;;;;;9.48;1.05;;;7.10;99.90;;;;;;5020122;28;20053;-57
2022/12/26 11:57:09;;;;;;;3.53;0.63;;;7.40;99.90;;;;;;5018801;28;20033;-57
2022/12/26 11:59:37;;;;;;;7.47;1.23;;;7.70;99.90;;;;;;5017326;28;20053;-62
2022/12/26 12:02:23;;;;;;;4.20;0.85;;;7.90;99.90;;;;;;5023654;28;20041;-59
2022/12/26 12:04:53;;;;;;;7.30;0.82;;;8.10;99.90;;;;;;5015251;28;20054;-58
2022/12/26 12:07:28;;;;;;;3.60;0.30;;;8.30;99.90;;;;;;5023118;28;20046;-58
2022/12/26 12:10:11;;;;;;;2.45;0.98;;;8.90;99.90;;;;;;5021165;28;20033;-57
2022/12/26 12:12:50;;;;;;;7.28;0.57;;;8.90;99.90;;;;;;5023051;28;20038;-58
2022/12/26 12:15:24;;;;;;;4.20;0.63;;;8.90;99.90;;;;;;5011857;28;20532;-57
2022/12/26 12:18:22;;;;;;;6.00;0.85;;;9.10;99.90;;;;;;5010961;28;20352;-58
2022/12/26 12:21:22;;;;;;;5.95;0.52;;;8.90;99.90;;;;;;4992741;28;20046;-57
2022/12/26 12:24:03;;;;;;;11.85;1.05;;;8.90;99.90;;;;;;4991512;28;20604;-57
2022/12/26 12:26:52;;;;;;;2.78;0.70;;;8.90;99.90;;;;;;5011278;28;20045;-56
2022/12/26 12:30:00;;;;;;;6.38;0.80;;;9.00;99.90;;;;;;5004636;28;20061;-58
2022/12/26 12:32:33;;;;;;;;;;;9.30;99.90;;;;;;4999089;28;20481;-60
2022/12/26 12:35:21;;;;;;;3.42;0.73;;;9.90;99.90;;;;;;5007243;28;19944;-58
2022/12/26 12:38:06;;;;;;;4.72;0.55;;;9.90;99.90;;;;;;5008700;28;20409;-58
2022/12/26 12:40:49;;;;;;;1.73;0.40;;;10.20;99.90;;;;;;5016780;28;20073;-58
2022/12/26 12:43:40;;;;;;;6.00;0.60;;;10.20;99.90;;;;;;5007564;28;20049;-58
2022/12/26 12:46:11;;;;;;;4.78;0.68;;;9.90;99.90;;;;;;4999583;28;20220;-58
2022/12/26 12:48:52;;;;;;;6.60;0.88;;;9.80;99.90;;;;;;5032074;28;20046;-58
2022/12/26 12:51:20;;;;;;;7.45;0.82;;;9.80;99.90;;;;;;5010703;28;20072;-61
2022/12/26 12:54:21;;;;;;;4.90;0.90;;;9.90;99.90;;;;;;4995156;28;20039;-59
2022/12/26 12:57:09;;;;;;;1.77;0.60;;;10.00;99.90;;;;;;5015114;28;20038;-59
2022/12/26 13:00:18;;;;;;;4.18;0.70;;;10.20;99.90;;;;;;4993184;28;20050;-58
2022/12/26 13:02:57;;;;;;;5.80;0.70;;;10.40;99.90;;;;;;5002433;28;20371;-57
2022/12/26 13:05:36;;;;;;;6.82;0.55;;;10.70;99.90;;;;;;4988789;28;20074;-58
2022/12/26 13:08:45;;;;;;;6.72;0.80;;;10.90;99.90;;;;;;4982089;28;20058;-59
2022/12/26 13:11:25;;;;;;;3.38;0.70;;;11.10;99.90;;;;;;5024317;28;20076;-59
2022/12/26 13:14:05;;;;;;;4.03;0.57;;;11.20;99.90;;;;;;4994942;28;20038;-59
2022/12/26 13:16:42;;;;;;;;;;;11.20;99.90;;;;;;5007595;28;20676;-59
2022/12/26 13:19:39;;;;;;;6.13;0.88;;;11.30;99.90;;;;;;4996883;28;19922;-58
2022/12/26 13:22:22;;;;;;;4.75;0.82;;;11.30;99.90;;;;;;5008166;28;20042;-62
2022/12/26 13:24:57;;;;;;;1.38;0.20;;;11.40;99.90;;;;;;4995960;28;20418;-58
2022/12/26 13:27:31;;;;;;;4.82;0.80;;;11.50;99.90;;;;;;4998766;28;20064;-60
2022/12/26 13:29:59;;;;;;;7.35;0.70;;;11.60;99.90;;;;;;5008040;28;20046;-59
2022/12/26 13:32:30;;;;;;;1.70;0.40;;;11.60;99.90;;;;;;5008514;28;20049;-59
2022/12/26 13:34:59;;;;;;;5.47;0.70;;;11.70;99.90;;;;;;4998348;28;20064;-59
2022/12/26 13:37:36;;;;;;;3.03;0.57;;;11.90;99.90;;;;;;5004230;28;20042;-59
2022/12/26 13:40:10;;;;;;;5.38;0.60;;;11.90;99.90;;;;;;5003786;28;20053;-61
2022/12/26 13:45:40;;;;;;;2.28;0.40;;;12.10;99.90;;;;;;4990559;28;20072;-61
2022/12/26 13:48:14;;;;;;;2.40;0.60;;;12.10;99.90;;;;;;4992762;28;20057;-59
2022/12/26 13:50:50;;;;;;;2.15;0.65;;;12.40;99.90;;;;;;5004706;28;20054;-59
2022/12/26 13:53:23;;;;;;;3.88;0.80;;;12.40;99.90;;;;;;4989898;28;20057;-59
2022/12/26 13:55:52;;;;;;;4.20;1.10;;;12.60;99.90;;;;;;4989491;28;20062;-59
2022/12/26 13:58:54;;;;;;;6.25;1.25;;;12.60;99.90;;;;;;4985230;28;20402;-58
2022/12/26 14:02:01;;;;;;;3.22;0.85;;;12.30;99.90;;;;;;4987682;28;20058;-58
2022/12/26 14:05:07;;;;;;;5.13;0.65;;;12.00;99.90;;;;;;4978204;28;20589;-57
2022/12/26 14:07:57;;;;;;;6.07;0.80;;;11.90;99.90;;;;;;5003535;28;20050;-58
2022/12/26 14:10:51;;;;;;;3.95;0.80;;;11.20;99.90;;;;;;4980450;28;20046;-57
2022/12/26 14:13:48;;;;;;;1.63;0.70;;;10.40;99.90;;;;;;4989263;28;20520;-57
2022/12/26 14:16:33;;;;;;;4.88;1.58;;;9.60;99.90;;;;;;4989017;28;20054;-60
2022/12/26 14:19:18;;;;;;;5.55;0.73;;;8.40;99.90;;;;;;4992800;28;20050;-57
2022/12/26 14:22:01;;;;;;;2.50;0.57;;;8.10;99.90;;;;;;5009273;28;20050;-57
2022/12/26 14:24:44;;;;;;;5.72;0.80;;;7.70;99.90;;;;;;4997680;28;20042;-57
2022/12/26 14:27:30;;;;;;;4.90;0.80;;;7.40;99.90;;;;;;4988077;28;20065;-58
2022/12/26 14:30:05;;;;;;;2.92;0.60;;;7.10;99.90;;;;;;4990632;28;20047;-58
2022/12/26 14:32:50;;;;;;;7.70;0.60;;;7.00;99.90;;;;;;4999100;28;20050;-58
2022/12/26 14:35:17;;;;;;;4.65;0.50;;;6.80;99.90;;;;;;4989400;28;20046;-59
2022/12/26 14:38:03;;;;;;;1.35;0.35;;;6.50;99.90;;;;;;4997811;28;20042;-58
2022/12/26 14:40:36;;;;;;;3.72;0.73;;;6.50;99.90;;;;;;4997547;28;20065;-58
2022/12/26 14:43:16;;;;;;;9.82;1.40;;;6.40;99.90;;;;;;4996801;28;20047;-57
2022/12/26 14:45:52;;;;;;;2.03;0.65;;;6.30;99.90;;;;;;4985718;28;20069;-58
2022/12/26 14:48:22;;;;;;;2.67;0.60;;;6.30;99.90;;;;;;4985436;28;20046;-59
2022/12/26 14:50:51;;;;;;;2.78;0.57;;;6.20;99.90;;;;;;5011949;28;20064;-59
2022/12/26 14:53:28;;;;;;;22.50;1.48;;;6.20;99.90;;;;;;4985244;28;20061;-59
2022/12/26 14:56:09;;;;;;;3.70;0.63;;;6.10;99.90;;;;;;4979444;28;20506;-59
2022/12/26 14:58:45;;;;;;;1.60;0.43;;;6.00;99.90;;;;;;4981309;28;20667;-63
2022/12/26 15:01:19;;;;;;;3.47;1.10;;;6.00;99.90;;;;;;4989608;28;20057;-61
2022/12/26 15:04:10;;;;;;;6.07;1.08;;;6.00;99.90;;;;;;4977869;28;20065;-59
2022/12/26 15:06:53;;;;;;;6.13;0.80;;;6.00;99.90;;;;;;4978322;28;20047;-59
2022/12/26 15:09:52;;;;;;;4.38;0.80;;;5.90;99.90;;;;;;4987583;28;20050;-58
2022/12/26 15:12:54;;;;;;;4.55;1.58;;;5.80;99.90;;;;;;4978151;28;20054;-61
2022/12/26 15:15:31;;;;;;;4.22;0.60;;;5.80;99.90;;;;;;4979359;28;20045;-58
2022/12/26 15:18:31;;;;;;;1.73;0.50;;;5.70;99.90;;;;;;4979857;28;20536;-59
2022/12/26 15:21:44;;;;;;;5.05;0.63;;;5.60;99.90;;;;;;4978064;28;20046;-58
2022/12/26 15:24:49;;;;;;;4.40;1.13;;;5.60;99.90;;;;;;4980308;28;20042;-58
2022/12/26 15:27:59;;;;;;;5.50;1.10;;;5.60;99.90;;;;;;4979798;28;20053;-60
2022/12/26 15:30:32;;;;;;;3.60;0.65;;;5.50;99.90;;;;;;4978490;28;20057;-60
2022/12/26 15:33:25;;;;;;;1.98;0.57;;;5.40;99.90;;;;;;4980520;28;20049;-58
2022/12/26 15:36:04;;;;;;;1.42;0.38;;;5.40;99.90;;;;;;4989754;28;20516;-60
2022/12/26 15:38:35;;;;;;;5.68;0.98;;;5.40;99.90;;;;;;4981123;28;20050;-59
2022/12/26 15:41:18;;;;;;;6.53;0.60;;;5.30;99.90;;;;;;5022291;28;20054;-58
2022/12/26 15:44:02;;;;;;;1.95;0.70;;;5.30;99.90;;;;;;4977339;28;20042;-59
2022/12/26 15:46:35;;;;;;;1.95;0.73;;;5.20;99.90;;;;;;4978991;28;20050;-59
2022/12/26 15:49:18;;;;;;;3.58;0.65;;;5.20;99.90;;;;;;4976088;28;20053;-59
2022/12/26 15:51:48;;;;;;;8.93;1.02;;;5.10;99.90;;;;;;4986204;28;20038;-59
2022/12/26 15:55:05;;;;;;;6.65;1.00;;;5.10;99.90;;;;;;4995926;28;20042;-61